Time;durP1;ratioP1;P1;durP2;ratioP2;P2;SDS_P1;SDS_P2;PMS_P1;PMS_P2;Temp;Humidity;BMP_temperature;BMP_pressure;BME280_temperature;BME280_humidity;BME280_pressure;Samples;Min_cycle;Max_cycle;Signal;HPM_P1;HPM_P2
2023/05/27 00:01:57;;;;;;;11.10;4.32;;;;;;;11.22;73.85;102225.47;4985151;28;20467;-61
2023/05/27 00:04:23;;;;;;;13.60;4.97;;;;;;;11.19;74.54;102227.16;4979749;28;20117;-60
2023/05/27 00:06:48;;;;;;;13.35;3.75;;;;;;;11.14;74.37;102221.94;4980321;28;20038;-60
2023/05/27 00:09:14;;;;;;;12.98;4.18;;;;;;;11.12;74.07;102228.81;4982807;28;20037;-60
2023/05/27 00:11:40;;;;;;;16.35;5.35;;;;;;;11.08;75.33;102226.16;4984699;28;20385;-60
2023/05/27 00:14:05;;;;;;;16.30;4.72;;;;;;;11.03;75.09;102222.66;4984095;28;20039;-61
2023/05/27 00:16:31;;;;;;;16.25;4.75;;;;;;;10.98;74.90;102225.16;4978796;28;20039;-65
2023/05/27 00:18:57;;;;;;;16.52;5.55;;;;;;;11.00;75.58;102226.06;4971875;28;20046;-65
2023/05/27 00:21:23;;;;;;;13.32;5.72;;;;;;;11.00;75.17;102218.31;4981595;28;20091;-64
2023/05/27 00:23:54;;;;;;;15.40;4.93;;;;;;;10.99;75.06;102218.28;4982195;28;20038;-64
2023/05/27 00:26:20;;;;;;;15.73;4.82;;;;;;;10.96;74.75;102211.34;4975409;28;20038;-64
2023/05/27 00:28:45;;;;;;;14.88;4.80;;;;;;;10.95;75.59;102211.34;4980531;28;20066;-64
2023/05/27 00:31:10;;;;;;;13.90;4.78;;;;;;;10.90;75.29;102218.16;4979294;28;20026;-63
2023/05/27 00:33:36;;;;;;;10.23;4.05;;;;;;;10.85;75.57;102215.50;4984170;28;20487;-63
2023/05/27 00:36:01;;;;;;;13.40;4.82;;;;;;;10.82;75.38;102223.22;4980748;28;20674;-63
2023/05/27 00:38:27;;;;;;;10.77;3.95;;;;;;;10.76;76.05;102221.44;4981067;28;20038;-64
2023/05/27 00:40:53;;;;;;;12.32;4.50;;;;;;;10.72;75.92;102227.41;4974423;28;20042;-64
2023/05/27 00:43:18;;;;;;;13.32;4.47;;;;;;;10.64;75.89;102229.00;4987219;28;20096;-63
2023/05/27 00:45:44;;;;;;;16.35;5.47;;;;;;;10.56;76.33;102225.47;4978670;28;20512;-64
2023/05/27 00:48:10;;;;;;;10.95;3.90;;;;;;;10.53;76.31;102227.13;5011357;28;20038;-63
2023/05/27 00:50:36;;;;;;;10.38;3.90;;;;;;;10.53;76.19;102219.38;4982469;28;20044;-63
2023/05/27 00:53:02;;;;;;;18.48;5.20;;;;;;;10.65;76.46;102219.53;4977597;28;20043;-62
2023/05/27 00:55:28;;;;;;;15.27;4.88;;;;;;;10.66;75.79;102206.63;4980774;28;20042;-63
2023/05/27 00:57:54;;;;;;;15.48;5.47;;;;;;;10.57;75.99;102227.19;4975546;28;20525;-63
2023/05/27 01:00:20;;;;;;;16.20;4.85;;;;;;;10.46;76.87;102220.97;4983599;28;20791;-63
2023/05/27 01:02:46;;;;;;;14.95;4.60;;;;;;;10.37;76.61;102217.38;4983955;28;20038;-63
2023/05/27 01:05:14;;;;;;;16.02;5.93;;;;;;;10.30;77.09;102212.97;4981655;28;20427;-62
2023/05/27 01:08:04;;;;;;;10.18;4.50;;;;;;;10.20;77.86;102220.59;4984840;28;20054;-62
2023/05/27 01:10:39;;;;;;;19.05;5.28;;;;;;;10.31;78.25;102219.88;4971575;28;20031;-62
2023/05/27 01:13:07;;;;;;;12.30;5.60;;;;;;;10.35;77.49;102217.38;4981892;28;20057;-63
2023/05/27 01:15:33;;;;;;;17.45;6.03;;;;;;;10.27;78.00;102212.94;4987997;28;20100;-62
2023/05/27 01:18:02;;;;;;;17.08;5.70;;;;;;;10.22;78.27;102203.38;4979245;28;20302;-63
2023/05/27 01:20:29;;;;;;;21.30;5.95;;;;;;;10.16;78.59;102215.31;4976828;28;20039;-62
2023/05/27 01:22:57;;;;;;;16.05;5.70;;;;;;;10.12;78.68;102213.53;4981405;28;20813;-62
2023/05/27 01:25:23;;;;;;;17.05;6.20;;;;;;;10.10;78.96;102210.94;4977669;28;20042;-63
2023/05/27 01:27:49;;;;;;;16.63;5.70;;;;;;;10.11;78.90;102207.50;4984902;28;20034;-63
2023/05/27 01:30:15;;;;;;;16.75;5.75;;;;;;;10.11;79.50;102210.09;4986954;28;20520;-67
2023/05/27 01:33:09;;;;;;;14.40;4.93;;;;;;;9.99;80.19;102212.47;4981102;28;20696;-67
2023/05/27 01:35:41;;;;;;;18.42;5.50;;;;;;;9.89;80.32;102214.84;4981212;28;20519;-68
2023/05/27 01:38:12;;;;;;;17.88;5.15;;;;;;;9.90;80.45;102214.91;4978269;28;20038;-67
2023/05/27 01:40:39;;;;;;;20.42;5.85;;;;;;;9.88;80.46;102215.72;4974594;28;20046;-67
2023/05/27 01:43:06;;;;;;;16.40;5.47;;;;;;;9.84;81.71;102214.78;4985169;28;20550;-68
2023/05/27 01:45:33;;;;;;;23.88;5.82;;;;;;;9.86;81.92;102210.50;4982572;28;20083;-67
2023/05/27 01:47:58;;;;;;;21.05;6.47;;;;;;;9.89;82.11;102209.69;4985937;28;20531;-68
2023/05/27 01:50:23;;;;;;;18.70;6.38;;;;;;;9.89;82.37;102207.09;4981485;28;20042;-67
2023/05/27 01:52:49;;;;;;;16.98;5.63;;;;;;;9.88;82.16;102206.22;4983966;28;20699;-67
2023/05/27 01:55:15;;;;;;;18.15;6.20;;;;;;;9.84;82.12;102212.19;4982988;28;20077;-67
2023/05/27 01:57:40;;;;;;;18.88;5.25;;;;;;;9.75;82.94;102216.31;4986099;28;20352;-67
2023/05/27 02:00:09;;;;;;;14.32;5.65;;;;;;;9.71;83.60;102215.41;4985461;28;20053;-67
2023/05/27 02:02:35;;;;;;;19.17;5.60;;;;;;;9.62;82.94;102212.63;4988041;28;20058;-67
2023/05/27 02:05:00;;;;;;;14.25;5.82;;;;;;;9.57;84.27;102215.16;4984117;28;20438;-68
2023/05/27 02:07:26;;;;;;;13.50;6.20;;;;;;;9.49;84.46;102219.28;4991738;28;20044;-67
2023/05/27 02:09:52;;;;;;;13.57;5.18;;;;;;;9.45;84.23;102211.44;4987689;28;20093;-67
2023/05/27 02:12:17;;;;;;;19.38;6.50;;;;;;;9.45;84.87;102204.56;4991851;28;20046;-67
2023/05/27 02:14:44;;;;;;;23.08;6.63;;;;;;;9.43;84.55;102206.25;4988160;28;20046;-67
2023/05/27 02:17:11;;;;;;;19.75;6.80;;;;;;;9.41;84.32;102209.63;5019898;28;20104;-67
2023/05/27 02:19:36;;;;;;;13.98;5.05;;;;;;;9.38;84.77;102204.41;4984993;28;20069;-67
2023/05/27 02:22:02;;;;;;;14.52;5.40;;;;;;;9.34;84.61;102200.91;4984908;28;20100;-67
2023/05/27 02:24:27;;;;;;;15.38;5.43;;;;;;;9.34;83.51;102198.34;4985217;28;20037;-67
2023/05/27 02:26:53;;;;;;;12.52;6.10;;;;;;;9.32;83.27;102196.53;4985505;28;20161;-67
2023/05/27 02:29:18;;;;;;;22.05;5.57;;;;;;;9.28;83.25;102194.75;4986717;28;20038;-67
2023/05/27 02:31:43;;;;;;;16.98;5.10;;;;;;;9.30;83.38;102188.78;4988240;28;20050;-67
2023/05/27 02:34:09;;;;;;;17.58;5.70;;;;;;;9.32;83.67;102191.38;4989632;28;20069;-67
2023/05/27 02:36:34;;;;;;;15.32;5.97;;;;;;;9.31;82.95;102197.41;4986542;28;20109;-67
2023/05/27 02:39:00;;;;;;;21.98;6.65;;;;;;;9.31;83.38;102203.44;4988892;28;21678;-67
2023/05/27 02:41:26;;;;;;;18.60;5.93;;;;;;;9.25;82.94;102203.31;4987052;28;20689;-67
2023/05/27 02:43:52;;;;;;;18.77;5.95;;;;;;;9.20;83.74;102201.47;4983395;28;20042;-66
2023/05/27 02:46:17;;;;;;;18.02;5.82;;;;;;;9.14;83.84;102205.66;4985156;28;20038;-67
2023/05/27 02:48:43;;;;;;;20.85;6.32;;;;;;;9.06;83.46;102207.22;4989510;28;20046;-66
2023/05/27 02:51:08;;;;;;;17.33;6.47;;;;;;;9.02;84.27;102204.56;4984642;28;20040;-67
2023/05/27 02:53:34;;;;;;;17.88;5.72;;;;;;;8.96;84.27;102207.00;4980915;28;20049;-67
2023/05/27 02:55:59;;;;;;;18.23;5.22;;;;;;;8.89;84.22;102203.41;4984004;28;20048;-66
2023/05/27 02:58:24;;;;;;;16.60;4.85;;;;;;;8.85;84.72;102205.88;5018465;28;20069;-67
2023/05/27 03:00:50;;;;;;;20.70;6.22;;;;;;;8.78;84.79;102199.75;4981937;28;20046;-67
2023/05/27 03:03:15;;;;;;;12.48;5.40;;;;;;;8.73;85.20;102203.03;4984269;28;20038;-67
2023/05/27 03:05:40;;;;;;;19.10;6.43;;;;;;;8.69;85.53;102201.25;4982148;28;20053;-66
2023/05/27 03:08:06;;;;;;;22.48;6.18;;;;;;;8.64;85.42;102201.13;4978858;28;20049;-67
2023/05/27 03:10:33;;;;;;;14.20;5.05;;;;;;;8.60;85.49;102194.19;4978249;28;20048;-67
2023/05/27 03:12:58;;;;;;;15.93;5.65;;;;;;;8.55;86.49;102198.34;4985272;28;20022;-65
2023/05/27 03:15:24;;;;;;;19.40;5.28;;;;;;;8.51;86.43;102201.72;4985876;28;20099;-65
2023/05/27 03:17:49;;;;;;;15.57;6.50;;;;;;;8.47;86.54;102200.75;4993554;28;20054;-67
2023/05/27 03:20:16;;;;;;;14.18;6.03;;;;;;;8.45;87.27;102199.88;4979796;28;20137;-66
2023/05/27 03:22:42;;;;;;;21.83;6.85;;;;;;;8.43;87.14;102205.78;4985033;28;20042;-67
2023/05/27 03:25:08;;;;;;;15.32;6.57;;;;;;;8.42;87.28;102202.38;4980850;28;20084;-66
2023/05/27 03:27:34;;;;;;;19.63;7.20;;;;;;;8.40;87.42;102204.03;4978462;28;20375;-66
2023/05/27 03:29:59;;;;;;;15.55;6.55;;;;;;;8.38;87.85;102203.13;4976988;28;20118;-67
2023/05/27 03:32:24;;;;;;;13.43;6.63;;;;;;;8.36;87.38;102206.50;4982909;28;20891;-67
2023/05/27 03:34:50;;;;;;;19.65;6.00;;;;;;;8.33;87.49;102199.56;4985982;28;20046;-63
2023/05/27 03:37:15;;;;;;;15.15;6.68;;;;;;;8.30;87.35;102199.50;4989152;28;20042;-63
2023/05/27 03:39:41;;;;;;;22.27;6.57;;;;;;;8.32;87.54;102196.94;4977623;28;20551;-63
2023/05/27 03:42:06;;;;;;;20.58;6.72;;;;;;;8.31;87.80;102188.34;4982082;28;20042;-63
2023/05/27 03:44:32;;;;;;;20.42;7.57;;;;;;;8.32;87.82;102186.66;4981920;28;20153;-62
2023/05/27 03:46:58;;;;;;;19.15;7.05;;;;;;;8.33;87.85;102188.41;4979852;28;20117;-63
2023/05/27 03:49:23;;;;;;;18.35;6.70;;;;;;;8.34;88.04;102182.38;4979277;28;20042;-63
2023/05/27 03:51:49;;;;;;;17.50;6.90;;;;;;;8.37;88.07;102187.63;4981782;28;20042;-61
2023/05/27 03:54:14;;;;;;;19.48;6.93;;;;;;;8.39;88.05;102184.25;4979180;28;20050;-61
2023/05/27 03:56:40;;;;;;;29.33;8.05;;;;;;;8.43;87.24;102177.44;4979794;28;20045;-61
2023/05/27 03:59:06;;;;;;;24.33;7.15;;;;;;;8.46;87.13;102180.97;4982328;28;20153;-61
2023/05/27 04:01:32;;;;;;;19.48;6.57;;;;;;;8.51;86.61;102181.09;4980726;28;20038;-61
2023/05/27 04:03:57;;;;;;;16.70;7.20;;;;;;;8.55;86.34;102180.31;4979492;28;20403;-61
2023/05/27 04:06:23;;;;;;;17.92;6.88;;;;;;;8.59;85.95;102179.53;4987881;28;20067;-61
2023/05/27 04:08:48;;;;;;;19.95;7.63;;;;;;;8.63;85.90;102181.38;4975352;28;20049;-61
2023/05/27 04:11:13;;;;;;;17.05;6.90;;;;;;;8.67;85.65;102174.53;4976728;28;20045;-61
2023/05/27 04:13:40;;;;;;;14.68;6.53;;;;;;;8.70;85.64;102178.06;4985237;28;20070;-61
2023/05/27 04:16:05;;;;;;;16.48;6.78;;;;;;;8.74;85.95;102176.44;4975441;28;20036;-61
2023/05/27 04:18:30;;;;;;;18.63;6.60;;;;;;;8.77;85.31;102168.75;4982161;28;20038;-61
2023/05/27 04:20:58;;;;;;;18.35;7.47;;;;;;;8.81;85.75;102171.41;4979629;28;20126;-62
2023/05/27 04:23:24;;;;;;;16.58;6.72;;;;;;;8.87;85.05;102178.44;4974686;28;20042;-62
2023/05/27 04:25:49;;;;;;;17.95;7.57;;;;;;;8.91;85.16;102172.50;4977693;28;20061;-62
2023/05/27 04:28:15;;;;;;;28.90;7.88;;;;;;;8.95;84.66;102172.59;4979347;28;20045;-62
2023/05/27 04:30:41;;;;;;;16.85;6.15;;;;;;;9.03;84.63;102176.19;4977839;28;20030;-61
2023/05/27 04:33:07;;;;;;;19.88;6.78;;;;;;;9.05;84.59;102176.25;4978955;28;20042;-61
2023/05/27 04:35:33;;;;;;;19.90;8.07;;;;;;;9.08;83.93;102171.13;4986369;28;20068;-61
2023/05/27 04:38:00;;;;;;;17.83;7.03;;;;;;;9.12;83.34;102172.94;4979458;28;20034;-61
2023/05/27 04:40:26;;;;;;;13.93;6.55;;;;;;;9.17;83.44;102173.88;4977803;28;20034;-61
2023/05/27 04:42:52;;;;;;;16.75;6.03;;;;;;;9.23;83.35;102174.00;4984219;28;20026;-62
2023/05/27 04:45:18;;;;;;;16.77;6.15;;;;;;;9.26;83.09;102174.06;4983694;28;20125;-61
2023/05/27 04:47:44;;;;;;;18.20;7.30;;;;;;;9.30;83.06;102181.03;4981103;28;20045;-62
2023/05/27 04:50:13;;;;;;;18.65;6.13;;;;;;;9.31;82.92;102175.03;4979987;28;20034;-61
2023/05/27 04:52:38;;;;;;;15.10;6.85;;;;;;;9.33;82.21;102175.06;4985517;28;20042;-61
2023/05/27 04:55:04;;;;;;;18.77;6.50;;;;;;;9.38;82.41;102181.16;4984149;28;20088;-61
2023/05/27 04:57:30;;;;;;;21.90;6.80;;;;;;;9.41;82.55;102170.91;4987739;28;20073;-61
2023/05/27 05:02:39;;;;;;;17.20;6.88;;;;;;;9.50;81.74;102173.66;4981368;28;20038;-61
2023/05/27 05:05:14;;;;;;;;;;;;;;;9.54;82.81;102175.47;4980384;28;20038;-61
2023/05/27 05:07:41;;;;;;;17.38;7.07;;;;;;;9.60;82.28;102175.63;4980684;28;20503;-62
2023/05/27 05:10:11;;;;;;;19.13;7.18;;;;;;;9.67;82.78;102178.31;4975969;28;20035;-62
2023/05/27 05:12:37;;;;;;;19.63;7.15;;;;;;;9.76;82.78;102177.63;4983946;28;20057;-62
2023/05/27 05:15:03;;;;;;;19.27;6.15;;;;;;;9.86;82.11;102174.34;4981743;28;20030;-62
2023/05/27 05:17:29;;;;;;;17.95;7.18;;;;;;;9.97;82.19;102177.97;4979839;28;20039;-61
2023/05/27 05:19:54;;;;;;;16.98;7.18;;;;;;;10.05;82.13;102176.41;4978970;28;20104;-62
2023/05/27 05:22:22;;;;;;;17.27;7.50;;;;;;;10.12;81.37;102183.41;4979087;28;20511;-62
2023/05/27 05:24:51;;;;;;;17.95;7.03;;;;;;;10.13;81.50;102179.97;4980335;28;20081;-62
2023/05/27 05:27:16;;;;;;;20.13;7.45;;;;;;;10.15;81.82;102175.69;4979291;28;20042;-62
2023/05/27 05:29:41;;;;;;;18.00;7.80;;;;;;;10.19;81.70;102186.94;4982052;28;20038;-62
2023/05/27 05:32:10;;;;;;;16.83;7.45;;;;;;;10.26;81.62;102188.78;4986720;28;20511;-62
2023/05/27 05:34:36;;;;;;;16.83;7.57;;;;;;;10.30;81.74;102190.56;4983794;28;20516;-62
2023/05/27 05:37:02;;;;;;;18.65;7.03;;;;;;;10.39;82.11;102185.53;4978721;28;20049;-62
2023/05/27 05:39:27;;;;;;;20.70;7.85;;;;;;;10.50;81.26;102184.00;4975169;28;20045;-62
2023/05/27 05:41:53;;;;;;;24.63;8.38;;;;;;;10.60;80.48;102185.84;4979278;28;20519;-62
2023/05/27 05:44:18;;;;;;;16.92;6.43;;;;;;;10.67;79.37;102182.50;5006306;28;21073;-62
2023/05/27 05:46:43;;;;;;;18.75;6.68;;;;;;;10.70;78.70;102182.56;4985419;28;20042;-62
2023/05/27 05:49:09;;;;;;;15.40;6.05;;;;;;;10.72;79.50;102187.72;4966606;28;20026;-62
2023/05/27 05:51:35;;;;;;;20.70;7.05;;;;;;;10.80;79.62;102188.72;4976562;28;20092;-62
2023/05/27 05:54:01;;;;;;;19.55;7.15;;;;;;;10.90;79.38;102187.97;4985213;28;20038;-62
2023/05/27 05:56:26;;;;;;;16.88;6.93;;;;;;;11.03;79.30;102189.00;4985780;28;20160;-62
2023/05/27 05:58:52;;;;;;;20.52;6.63;;;;;;;11.10;78.56;102175.31;4988937;28;20058;-62
2023/05/27 06:01:17;;;;;;;17.70;7.70;;;;;;;11.22;78.35;102178.00;4985151;28;20557;-62
2023/05/27 06:03:43;;;;;;;13.50;6.38;;;;;;;11.24;77.04;102173.75;4981587;28;20030;-62
2023/05/27 06:06:09;;;;;;;18.23;6.78;;;;;;;11.30;76.90;102166.94;4986515;28;20046;-62
2023/05/27 06:08:34;;;;;;;21.77;7.05;;;;;;;11.36;76.81;102171.28;4986044;28;20038;-62
2023/05/27 06:11:00;;;;;;;23.90;7.20;;;;;;;11.46;76.70;102170.56;4982552;28;20042;-62
2023/05/27 06:13:25;;;;;;;25.55;7.72;;;;;;;11.50;76.11;102167.16;4987718;28;20738;-62
2023/05/27 06:15:51;;;;;;;24.38;7.78;;;;;;;11.57;75.70;102163.78;4988755;28;20538;-63
2023/05/27 06:18:16;;;;;;;20.95;7.88;;;;;;;11.68;75.60;102158.69;4977633;28;20388;-62
2023/05/27 06:20:41;;;;;;;27.70;7.00;;;;;;;11.79;76.30;102167.41;4985647;28;20057;-62
2023/05/27 06:23:07;;;;;;;17.98;7.15;;;;;;;11.81;76.31;102168.31;4988606;28;20038;-62
2023/05/27 06:25:33;;;;;;;17.65;6.60;;;;;;;11.93;75.84;102167.56;4987379;28;20034;-62
2023/05/27 06:27:59;;;;;;;17.67;5.93;;;;;;;12.02;74.40;102139.97;4987497;28;20415;-62
2023/05/27 06:30:24;;;;;;;16.25;6.18;;;;;;;12.18;73.61;102141.84;4986978;28;20025;-61
2023/05/27 06:32:50;;;;;;;19.17;7.32;;;;;;;12.29;72.37;102129.81;4983466;28;20149;-62
2023/05/27 06:35:15;;;;;;;16.77;6.43;;;;;;;12.38;72.51;102129.84;4982402;28;20070;-62
2023/05/27 06:37:41;;;;;;;22.55;6.20;;;;;;;12.44;71.36;102113.47;4985484;28;20050;-62
2023/05/27 06:40:07;;;;;;;15.73;5.60;;;;;;;12.61;71.09;102101.47;4981712;28;20484;-61
2023/05/27 06:42:32;;;;;;;16.67;6.07;;;;;;;12.74;71.28;102105.84;4982844;28;20088;-61
2023/05/27 06:44:58;;;;;;;21.73;6.95;;;;;;;12.90;70.64;102098.97;4981739;28;20975;-62
2023/05/27 06:47:23;;;;;;;12.77;5.90;;;;;;;13.02;70.37;102087.81;4978156;28;20050;-62
2023/05/27 06:49:49;;;;;;;20.73;5.75;;;;;;;13.16;70.61;102101.69;4975635;28;20423;-62
2023/05/27 06:52:14;;;;;;;17.65;6.20;;;;;;;13.27;70.12;102090.44;4981331;28;20060;-62
2023/05/27 06:54:40;;;;;;;14.43;4.97;;;;;;;13.30;68.67;102063.63;4982328;28;20045;-62
2023/05/27 06:57:05;;;;;;;16.52;5.75;;;;;;;13.31;68.07;102055.84;4980789;28;20096;-62
2023/05/27 06:59:31;;;;;;;20.13;6.53;;;;;;;13.32;68.79;102069.69;4976021;28;20124;-62
2023/05/27 07:01:56;;;;;;;12.18;5.25;;;;;;;13.42;69.30;102080.09;4993655;28;20121;-62
2023/05/27 07:04:22;;;;;;;18.33;5.63;;;;;;;13.50;67.88;102049.78;4979284;28;20039;-62
2023/05/27 07:06:47;;;;;;;18.63;5.68;;;;;;;13.64;67.35;102041.13;4985958;28;20038;-62
2023/05/27 07:09:13;;;;;;;18.20;6.03;;;;;;;13.71;67.56;102046.28;4981417;28;20034;-62
2023/05/27 07:11:39;;;;;;;16.60;5.78;;;;;;;13.87;66.14;102027.22;5014260;28;20046;-62
2023/05/27 07:14:05;;;;;;;15.18;5.65;;;;;;;14.05;66.20;102028.94;4983227;28;20038;-62
2023/05/27 07:16:31;;;;;;;16.48;5.82;;;;;;;14.15;65.65;102017.66;4982081;28;20045;-62
2023/05/27 07:18:56;;;;;;;20.58;6.40;;;;;;;14.22;64.25;101997.69;4982058;28;20041;-70
2023/05/27 07:21:22;;;;;;;15.30;5.20;;;;;;;14.29;64.79;102007.19;4988715;28;20029;-65
2023/05/27 07:23:47;;;;;;;15.68;5.28;;;;;;;14.38;65.47;102014.97;4981412;28;20038;-65
2023/05/27 07:26:12;;;;;;;15.18;5.85;;;;;;;14.53;64.76;102000.19;4981749;28;20133;-66
2023/05/27 07:28:38;;;;;;;13.20;5.28;;;;;;;14.35;64.45;102000.22;4980042;28;20034;-65
2023/05/27 07:31:04;;;;;;;17.88;5.78;;;;;;;14.50;65.06;102018.41;4982305;28;20034;-65
2023/05/27 07:33:30;;;;;;;17.58;6.03;;;;;;;14.62;63.68;101992.31;5001275;28;20041;-64
2023/05/27 07:35:55;;;;;;;14.25;6.38;;;;;;;14.75;63.47;101989.66;4983519;28;20038;-65
2023/05/27 07:38:21;;;;;;;21.92;6.13;;;;;;;14.84;63.54;101998.25;4983249;28;20483;-64
2023/05/27 07:40:46;;;;;;;18.42;5.82;;;;;;;14.86;62.85;101987.84;4976801;28;20077;-64
2023/05/27 07:43:12;;;;;;;15.80;5.93;;;;;;;14.91;62.85;101994.75;4983286;28;20873;-65
2023/05/27 07:45:37;;;;;;;14.18;5.63;;;;;;;15.00;63.03;101999.88;4980921;28;20030;-64
2023/05/27 07:48:03;;;;;;;15.50;5.38;;;;;;;15.09;62.25;101983.34;4979521;28;20038;-64
2023/05/27 07:50:28;;;;;;;17.35;5.57;;;;;;;15.18;61.88;101971.13;4980070;28;20038;-64
2023/05/27 07:52:53;;;;;;;17.33;5.10;;;;;;;15.28;61.53;101960.63;4985051;28;20113;-64
2023/05/27 07:55:19;;;;;;;22.10;7.22;;;;;;;15.40;61.24;101970.94;4980824;28;20619;-65
2023/05/27 07:57:44;;;;;;;19.00;6.13;;;;;;;15.38;61.58;101965.72;4982730;28;20030;-65
2023/05/27 08:00:10;;;;;;;20.20;6.25;;;;;;;15.51;60.64;101943.03;4980710;28;20122;-64
2023/05/27 08:02:36;;;;;;;11.10;5.18;;;;;;;15.67;61.01;101948.09;4985135;28;20033;-65
2023/05/27 08:05:03;;;;;;;18.27;5.40;;;;;;;15.66;58.99;101914.22;4983853;28;20088;-64
2023/05/27 08:07:29;;;;;;;18.98;5.38;;;;;;;15.77;60.19;101935.81;4985105;28;20045;-65
2023/05/27 08:09:55;;;;;;;21.55;5.60;;;;;;;15.88;60.70;101935.72;4980890;28;20042;-66
2023/05/27 08:12:20;;;;;;;17.65;5.28;;;;;;;16.01;58.41;101885.13;4981556;28;20026;-65
2023/05/27 08:14:46;;;;;;;14.13;5.38;;;;;;;16.17;57.70;101878.84;4983801;28;20034;-64
2023/05/27 08:17:11;;;;;;;16.52;5.30;;;;;;;16.22;57.49;101875.28;4980136;28;20046;-65
2023/05/27 08:19:37;;;;;;;14.80;5.30;;;;;;;16.46;57.78;101873.19;4976438;28;20513;-65
2023/05/27 08:22:03;;;;;;;12.77;5.07;;;;;;;16.61;57.39;101865.13;4979307;28;20073;-65
2023/05/27 08:24:31;;;;;;;14.43;4.93;;;;;;;16.66;58.43;101882.44;4979598;28;20040;-64
2023/05/27 08:26:57;;;;;;;14.90;5.20;;;;;;;16.76;57.61;101872.72;4977909;28;20042;-66
2023/05/27 08:29:27;;;;;;;11.45;4.15;;;;;;;16.84;57.33;101865.66;4981766;28;20026;-66
2023/05/27 08:31:53;;;;;;;12.70;5.00;;;;;;;16.90;57.06;101854.25;4978788;28;20759;-67
2023/05/27 08:34:18;;;;;;;13.73;5.13;;;;;;;16.91;57.35;101854.22;4984745;28;20042;-67
2023/05/27 08:36:44;;;;;;;21.10;5.95;;;;;;;16.93;56.42;101846.34;4980086;28;20045;-67
2023/05/27 08:39:09;;;;;;;15.35;4.55;;;;;;;17.09;56.54;101850.44;4981402;28;20084;-69
2023/05/27 08:41:36;;;;;;;17.17;5.72;;;;;;;17.30;56.35;101853.53;4982221;28;20068;-68
2023/05/27 08:44:02;;;;;;;16.33;5.38;;;;;;;17.43;53.20;101799.25;4978766;28;20041;-70
2023/05/27 08:46:27;;;;;;;16.50;4.88;;;;;;;17.34;53.51;101796.81;4985494;28;20100;-61
2023/05/27 08:48:55;;;;;;;19.88;5.43;;;;;;;17.30;53.23;101796.03;4982482;28;20030;-64
2023/05/27 08:51:21;;;;;;;17.35;4.75;;;;;;;17.46;54.13;101817.47;4984016;28;20052;-62
2023/05/27 08:53:47;;;;;;;15.93;4.88;;;;;;;17.47;53.53;101803.53;4978840;28;20328;-62
2023/05/27 08:56:15;;;;;;;16.35;5.22;;;;;;;17.54;54.00;101822.56;4977044;28;20041;-63
2023/05/27 08:58:41;;;;;;;12.48;4.80;;;;;;;17.63;53.51;101807.53;4977488;28;20046;-62
2023/05/27 09:01:08;;;;;;;16.17;5.10;;;;;;;17.66;53.29;101799.63;4976872;28;20034;-62
2023/05/27 09:03:33;;;;;;;17.95;4.80;;;;;;;17.86;52.53;101791.41;4982076;28;20117;-62
2023/05/27 09:06:01;;;;;;;18.23;5.15;;;;;;;17.99;51.24;101773.69;4976792;28;20046;-62
2023/05/27 09:08:27;;;;;;;15.60;4.82;;;;;;;18.04;50.89;101764.84;4980080;28;20030;-63
2023/05/27 09:10:52;;;;;;;11.70;4.32;;;;;;;18.14;50.71;101761.09;4977336;28;20088;-62
2023/05/27 09:13:28;;;;;;;15.73;4.65;;;;;;;18.31;50.72;101765.94;4983707;28;20100;-63
2023/05/27 09:16:02;;;;;;;10.50;4.13;;;;;;;18.48;50.95;101774.22;4941253;28;1103681;-62
2023/05/27 09:18:31;;;;;;;12.18;4.07;;;;;;;18.61;49.89;101746.81;4983619;28;20080;-71
2023/05/27 09:20:56;;;;;;;12.40;4.57;;;;;;;18.64;49.82;101749.34;4974056;28;20073;-70
2023/05/27 09:23:22;;;;;;;17.17;4.00;;;;;;;18.68;48.65;101727.44;4984623;28;20546;-70
2023/05/27 09:25:47;;;;;;;12.50;4.00;;;;;;;18.80;48.01;101726.25;4978436;28;20511;-70
2023/05/27 09:28:20;;;;;;;14.40;4.13;;;;;;;18.93;45.64;101678.75;4982753;28;20507;-71
2023/05/27 09:30:47;;;;;;;12.15;4.00;;;;;;;19.20;45.90;101684.13;4980986;28;20034;-70
2023/05/27 09:33:12;;;;;;;18.58;4.25;;;;;;;19.39;45.56;101674.78;4984625;28;20038;-71
2023/05/27 09:35:40;;;;;;;9.80;3.58;;;;;;;19.51;45.83;101688.38;4992650;28;20388;-71
2023/05/27 09:38:09;;;;;;;13.85;4.13;;;;;;;19.55;45.10;101686.53;4992570;28;20052;-70
2023/05/27 09:40:37;;;;;;;16.45;4.50;;;;;;;19.78;45.25;101688.44;4980102;28;20046;-70
2023/05/27 09:43:03;;;;;;;12.35;4.32;;;;;;;19.91;44.24;101663.56;4976830;28;20144;-70
2023/05/27 09:45:28;;;;;;;13.07;3.72;;;;;;;20.09;44.16;101663.81;4985204;28;20022;-71
2023/05/27 09:47:54;;;;;;;13.90;4.10;;;;;;;20.22;43.89;101666.88;4977907;28;20044;-71
2023/05/27 09:50:20;;;;;;;13.68;3.38;;;;;;;20.28;43.21;101656.16;4982950;28;20758;-72
2023/05/27 09:52:47;;;;;;;13.88;4.00;;;;;;;20.23;41.56;101649.34;4983680;28;20061;-71
2023/05/27 09:55:14;;;;;;;13.73;3.83;;;;;;;20.11;41.33;101641.00;4985243;28;20149;-72
2023/05/27 09:57:40;;;;;;;10.88;3.67;;;;;;;20.00;41.72;101652.75;4985745;28;20030;-72
2023/05/27 10:00:17;;;;;;;15.15;4.10;;;;;;;20.28;43.62;101700.81;4977851;28;20385;-71
2023/05/27 10:02:45;;;;;;;16.80;4.78;;;;;;;20.55;42.56;101662.22;4978298;28;20042;-73
2023/05/27 10:05:13;;;;;;;11.75;3.92;;;;;;;20.56;41.89;101651.69;4977861;28;20037;-74
2023/05/27 10:07:42;;;;;;;10.23;4.10;;;;;;;20.57;40.66;101637.63;4979147;28;20810;-72
2023/05/27 10:10:11;;;;;;;10.02;3.40;;;;;;;20.54;41.20;101650.03;4979862;28;20036;-72
2023/05/27 10:12:37;;;;;;;13.02;3.55;;;;;;;20.69;41.54;101657.38;4981922;28;20046;-73
2023/05/27 10:15:03;;;;;;;9.85;3.53;;;;;;;20.95;41.07;101640.66;4981313;28;20069;-73
2023/05/27 10:17:52;;;;;;;6.75;3.28;;;;;;;21.04;40.52;101630.66;4981588;28;20117;-73
2023/05/27 10:20:25;;;;;;;11.40;3.88;;;;;;;21.01;40.29;101619.41;4987983;28;20352;-72
2023/05/27 10:22:51;;;;;;;10.02;3.45;;;;;;;21.19;39.96;101614.28;4982093;28;20419;-73
2023/05/27 10:25:17;;;;;;;11.80;4.03;;;;;;;21.38;40.04;101613.56;4982432;28;20035;-73
2023/05/27 10:27:46;;;;;;;9.98;4.07;;;;;;;21.60;40.67;101619.72;4985480;28;20112;-73
2023/05/27 10:30:13;;;;;;;9.60;3.60;;;;;;;21.67;39.31;101602.78;4985018;28;20740;-73
2023/05/27 10:32:53;;;;;;;13.25;3.80;;;;;;;21.62;38.98;101595.06;4982557;28;20042;-73
2023/05/27 10:35:19;;;;;;;14.73;3.22;;;;;;;21.79;39.22;101607.53;4983536;28;20097;-73
2023/05/27 10:37:46;;;;;;;13.18;3.83;;;;;;;21.68;38.27;101583.44;4983757;28;20049;-70
2023/05/27 10:40:12;;;;;;;13.00;3.97;;;;;;;21.49;38.09;101582.44;4986803;28;20089;-71
2023/05/27 10:42:37;;;;;;;15.95;3.95;;;;;;;21.58;38.07;101584.75;4975081;28;20035;-72
2023/05/27 10:45:05;;;;;;;7.55;3.55;;;;;;;21.66;39.15;101608.97;4974059;28;20081;-70
2023/05/27 10:47:35;;;;;;;14.77;4.43;;;;;;;21.53;38.59;101594.53;4975333;28;20074;-73
2023/05/27 10:50:10;;;;;;;9.00;3.83;;;;;;;21.74;39.36;101604.22;4974984;28;20145;-73
2023/05/27 10:52:38;;;;;;;9.07;3.33;;;;;;;21.96;38.65;101597.16;4966132;28;20094;-73
2023/05/27 10:55:05;;;;;;;11.23;3.55;;;;;;;21.97;38.34;101577.81;4964659;28;20619;-74
2023/05/27 10:57:30;;;;;;;10.20;3.85;;;;;;;22.24;39.78;101607.38;4965662;28;20116;-71
2023/05/27 11:00:07;;;;;;;14.77;4.13;;;;;;;22.04;38.00;101573.13;4966140;28;21146;-73
2023/05/27 11:02:35;;;;;;;7.72;3.40;;;;;;;22.22;38.51;101575.84;4967626;28;20156;-72
2023/05/27 11:05:00;;;;;;;14.20;3.85;;;;;;;22.34;37.45;101564.78;4964020;28;20034;-72
2023/05/27 11:07:26;;;;;;;13.45;3.65;;;;;;;22.31;36.80;101549.09;4978724;28;20038;-72
2023/05/27 11:09:55;;;;;;;10.95;3.47;;;;;;;22.47;35.87;101532.63;4980908;28;20034;-72
2023/05/27 11:12:22;;;;;;;10.27;3.40;;;;;;;22.66;37.44;101557.22;4981535;28;20046;-71
2023/05/27 11:14:53;;;;;;;7.20;3.22;;;;;;;22.79;37.08;101558.38;4983051;28;20049;-72
2023/05/27 11:17:20;;;;;;;9.35;3.38;;;;;;;23.00;34.85;101528.38;4987314;28;20026;-72
2023/05/27 11:19:46;;;;;;;10.35;3.42;;;;;;;22.69;34.63;101520.16;4988694;28;20050;-72